KFYM/FYM METAR and TAF weather

Enter ICAO airport designator
Station Type Date Time Source
KFYM METAR 2019/10/22 15:55 UTC NOAA

KFYM 221555Z AUTO 27011G16KT 10SM CLR 16/05 A3001 RMK A01


Station Type Date Time Source
KFYM Decoded METAR 2019/10/22 15:55 UTC NOAA

Station name not available
Oct 22, 2019 - 11:55 AM EDT / 2019.10.22 1555 UTC
Wind: from the W (270 degrees) at 13 MPH (11 KT) gusting to 18 MPH (16 KT):0
Visibility: 10 mile(s):0
Sky conditions: clear
Temperature: 60 F (16 C)
Dew Point: 41 F (5 C)
Relative Humidity: 47%
Pressure (altimeter): 30.01 in. Hg (1016 hPa)
ob: KFYM 221555Z AUTO 27011G16KT 10SM CLR 16/05 A3001 RMK A01
cycle: 16

Station Type Date Time Source
KFYM TAF 2009/08/31 19:45 UTC NOAA

METAR KFYM 311945Z AUTO 01006KT 10SM CLR 26/11 A3009
RMK AO1 T02550111 $

Example: see airport list